Humidity-temperature Sensor

Selected Measurement Type: Air Temperature

 
Air Temperature [°C]     6 entries per hour
Showing data from 8/8/2022 (00:00:00 Z) to 8/7/2022 (00:01:00 Z)
Previous Next [ Day | 3-Days | 7-Days ]
First Last
Prev [ Day | 3-Days | 7-Days ] Next
First Last

Start Time:     :
End Time:     :     
Time (in GMT) :00 :50 :40 :30 :20 :10
Previous Next [ Day | 3-Days | 7-Days ]
First Last
Prev [ Day | 3-Days | 7-Days ] Next
First Last


123 => good data
MM => data is determined as missing
-- => data not received/configured
Back to Top Back to Top
8/8/2022 00:00 to 23:10 25.33 25.78 26.12 25.94 26.07 26.25
8/7/2022 23:00 to 22:10 26.04 25.94 25.94 25.77 26.09 26.26
8/7/2022 22:00 to 21:10 26.22 26.19 26.09 26.20 26.15 26.24
8/7/2022 21:00 to 20:10 26.16 26.42 26.07 26.00 26.18 26.09
8/7/2022 20:00 to 19:10 26.11 26.23 26.28 25.91 26.07 26.04
8/7/2022 19:00 to 18:10 25.94 25.57 25.92 26.11 26.02 26.04
8/7/2022 18:00 to 17:10 25.74 25.81 25.58 25.91 25.93 25.94
8/7/2022 17:00 to 16:10 25.88 25.82 25.62 25.64 25.49 25.44
8/7/2022 16:00 to 15:10 25.26 25.75 25.68 25.55 25.03 24.98
8/7/2022 15:00 to 14:10 24.95 25.04 25.33 25.15 25.28 25.53
8/7/2022 14:00 to 13:10 25.98 25.68 25.68 25.41 25.47 25.52
8/7/2022 13:00 to 12:10 25.62 25.65 25.79 25.31 25.13 25.09
8/7/2022 12:00 to 11:10 25.23 24.96 25.32 25.21 25.10 25.24
8/7/2022 11:00 to 10:10 25.06 24.84 24.98 24.99 25.01 25.06
8/7/2022 10:00 to 9:10 25.10 25.28 25.49 25.32 25.49 25.56
8/7/2022 09:00 to 8:10 25.52 25.59 25.43 25.38 25.22 25.21
8/7/2022 08:00 to 7:10 25.23 25.41 25.58 25.51 25.36 25.31
8/7/2022 07:00 to 6:10 24.97 25.06 25.16 25.32 25.17 25.44
8/7/2022 06:00 to 5:10 25.53 25.38 25.21 25.43 25.61 25.53
8/7/2022 05:00 to 4:10 25.55 25.18 25.47 25.27 25.28 25.28
8/7/2022 04:00 to 3:10 25.26 25.33 25.48 25.53 25.50 25.58
8/7/2022 03:00 to 2:10 25.55 25.63 25.66 25.56 25.69 25.71
8/7/2022 02:00 to 1:10 25.79 25.64 25.56 25.64 25.76 25.57
8/7/2022 01:00 to 0:10 25.61 25.62 25.96 26.11 26.03 25.82